createdAt,value
2018-12-11T00:01:12.011Z,6.69
2018-12-11T00:03:42.627Z,6.57
2018-12-11T00:06:11.394Z,6.70
2018-12-11T00:08:40.111Z,7.00
2018-12-11T00:11:08.931Z,6.78
2018-12-11T00:13:37.598Z,6.84
2018-12-11T00:16:06.327Z,6.89
2018-12-11T00:18:35.035Z,6.65
2018-12-11T00:21:03.758Z,6.64
2018-12-11T00:23:32.419Z,6.84
2018-12-11T00:26:01.086Z,6.58
2018-12-11T00:28:29.743Z,6.65
2018-12-11T00:30:58.450Z,6.81
2018-12-11T00:33:27.139Z,6.66
2018-12-11T00:35:55.846Z,6.63
2018-12-11T00:38:24.566Z,6.56
2018-12-11T00:40:53.230Z,6.64
2018-12-11T00:43:21.954Z,6.56
2018-12-11T00:45:50.679Z,6.74
2018-12-11T00:48:19.395Z,6.97
2018-12-11T00:50:48.158Z,6.90
2018-12-11T00:53:16.895Z,6.99
2018-12-11T00:55:45.599Z,6.82
2018-12-11T00:58:14.384Z,6.54
2018-12-11T01:00:43.147Z,6.49
2018-12-11T01:03:11.879Z,6.53
2018-12-11T01:05:40.596Z,6.51
2018-12-11T01:08:09.295Z,6.80
2018-12-11T01:10:38.016Z,6.53
2018-12-11T01:13:06.791Z,6.51
2018-12-11T01:15:35.506Z,6.92
2018-12-11T01:18:04.210Z,6.97
2018-12-11T01:20:32.930Z,6.86
2018-12-11T01:23:01.667Z,6.88
2018-12-11T01:25:30.362Z,6.77
2018-12-11T01:27:58.994Z,6.69
2018-12-11T01:30:27.736Z,6.77
2018-12-11T01:32:56.460Z,6.82
2018-12-11T01:35:25.186Z,6.89
2018-12-11T01:37:53.906Z,6.72
2018-12-11T01:40:22.672Z,7.00
2018-12-11T01:42:51.345Z,6.88
2018-12-11T01:45:20.055Z,6.69
2018-12-11T01:47:48.770Z,6.75
2018-12-11T01:50:17.463Z,6.81
2018-12-11T01:52:46.220Z,6.87
2018-12-11T01:55:15.006Z,6.81
2018-12-11T01:57:43.722Z,6.77
2018-12-11T02:00:12.454Z,6.85
2018-12-11T02:02:41.234Z,6.87
2018-12-11T02:05:09.618Z,6.69
2018-12-11T02:07:38.331Z,6.62
2018-12-11T02:10:07.171Z,6.69
2018-12-11T02:12:35.874Z,6.64
2018-12-11T02:15:05.862Z,6.48
2018-12-11T02:17:34.594Z,6.58
2018-12-11T02:20:03.689Z,6.74
2018-12-11T02:22:32.443Z,6.90
2018-12-11T02:25:01.182Z,6.62
2018-12-11T02:27:30.964Z,6.66
2018-12-11T02:29:59.767Z,6.62
2018-12-11T02:32:28.531Z,6.56
2018-12-11T02:34:57.203Z,6.86
2018-12-11T02:37:25.914Z,6.82
2018-12-11T02:39:54.639Z,6.79
2018-12-11T02:42:23.341Z,6.39
2018-12-11T02:44:52.049Z,6.74
2018-12-11T02:47:20.777Z,6.81
2018-12-11T02:49:49.488Z,6.89
2018-12-11T02:52:18.218Z,7.01
2018-12-11T02:54:46.966Z,6.73
2018-12-11T02:57:15.752Z,6.87
2018-12-11T02:59:44.497Z,7.05
2018-12-11T03:02:13.264Z,6.88
2018-12-11T03:04:41.999Z,7.01
2018-12-11T03:07:10.711Z,7.04
2018-12-11T03:09:39.428Z,6.24
2018-12-11T03:12:08.280Z,6.71
2018-12-11T03:14:37.008Z,6.79
2018-12-11T03:17:05.726Z,6.62
2018-12-11T03:19:34.415Z,6.92
2018-12-11T03:22:03.195Z,6.78
2018-12-11T03:24:31.874Z,6.34
2018-12-11T03:27:00.597Z,6.69
2018-12-11T03:29:29.296Z,6.64
2018-12-11T03:37:51.966Z,6.76
2018-12-11T03:40:20.673Z,6.74
2018-12-11T03:42:49.377Z,6.66
2018-12-11T03:45:18.160Z,6.68
2018-12-11T03:47:46.974Z,6.61
2018-12-11T03:50:15.880Z,6.50
2018-12-11T03:52:44.728Z,6.59
2018-12-11T03:55:13.463Z,6.65
2018-12-11T03:57:42.197Z,6.52
2018-12-11T04:00:11.050Z,6.68
2018-12-11T04:02:39.808Z,6.59
2018-12-11T04:05:08.724Z,6.53
2018-12-11T04:07:37.441Z,6.20
2018-12-11T04:10:07.737Z,6.36
2018-12-11T04:12:36.508Z,6.57
2018-12-11T04:15:05.623Z,6.63
2018-12-11T04:17:34.386Z,6.70
2018-12-11T04:20:03.397Z,6.73
2018-12-11T04:22:32.074Z,6.57
2018-12-11T04:25:00.804Z,6.50
2018-12-11T04:27:29.478Z,6.48
2018-12-11T04:29:58.271Z,6.50
2018-12-11T04:32:26.939Z,6.48
2018-12-11T04:34:55.681Z,6.47
2018-12-11T04:37:24.475Z,6.35
2018-12-11T04:39:53.146Z,6.33
2018-12-11T04:42:21.893Z,6.34
2018-12-11T04:44:50.572Z,6.15
2018-12-11T04:47:19.303Z,6.30
2018-12-11T04:49:48.059Z,6.29
2018-12-11T04:52:16.774Z,6.36
2018-12-11T04:54:45.508Z,6.31
2018-12-11T04:57:14.232Z,6.02
2018-12-11T04:59:42.883Z,6.01
2018-12-11T05:02:11.615Z,5.82
2018-12-11T05:04:40.343Z,5.94
2018-12-11T05:07:09.034Z,6.19
2018-12-11T05:09:37.749Z,6.21
2018-12-11T05:12:06.530Z,6.16
2018-12-11T05:14:35.182Z,6.16
2018-12-11T05:17:04.103Z,6.21
2018-12-11T05:19:32.829Z,6.26
2018-12-11T05:22:01.488Z,6.21
2018-12-11T05:24:30.223Z,6.36
2018-12-11T05:26:58.950Z,6.53
2018-12-11T05:29:27.627Z,6.51
2018-12-11T05:31:56.335Z,6.55
2018-12-11T05:34:25.009Z,6.62
2018-12-11T05:36:53.912Z,6.63
2018-12-11T05:39:22.657Z,6.64
2018-12-11T05:41:51.395Z,6.56
2018-12-11T05:44:20.151Z,6.42
2018-12-11T05:46:49.619Z,6.48
2018-12-11T05:49:18.289Z,6.33
2018-12-11T05:51:47.035Z,6.21
2018-12-11T05:54:15.758Z,6.28
2018-12-11T05:56:45.523Z,6.27
2018-12-11T05:59:14.307Z,6.22
2018-12-11T06:01:43.078Z,6.32
2018-12-11T06:04:11.843Z,6.44
2018-12-11T06:06:40.606Z,6.56
2018-12-11T06:09:09.362Z,6.54
2018-12-11T06:11:38.214Z,6.52
2018-12-11T06:14:06.903Z,6.49
2018-12-11T06:16:35.826Z,6.44
2018-12-11T06:19:04.575Z,6.53
2018-12-11T06:21:33.276Z,6.65
2018-12-11T06:24:01.966Z,6.54
2018-12-11T06:26:30.694Z,6.47
2018-12-11T06:28:59.406Z,6.58
2018-12-11T06:31:28.215Z,6.55
2018-12-11T06:33:56.894Z,6.38
2018-12-11T06:36:25.660Z,6.35
2018-12-11T06:38:54.350Z,6.43
2018-12-11T06:41:23.080Z,6.36
2018-12-11T06:43:51.810Z,6.31
2018-12-11T06:46:20.563Z,6.36
2018-12-11T06:48:49.306Z,6.32
2018-12-11T06:51:18.086Z,6.53
2018-12-11T06:53:47.706Z,6.68
2018-12-11T06:56:16.474Z,6.73
2018-12-11T06:58:45.214Z,6.78
2018-12-11T07:01:14.001Z,6.79
2018-12-11T07:03:42.757Z,6.66
2018-12-11T07:06:11.497Z,6.71
2018-12-11T07:08:40.205Z,6.46
2018-12-11T07:11:08.892Z,6.56
2018-12-11T07:13:37.627Z,6.50
2018-12-11T07:16:07.287Z,6.69
2018-12-11T07:18:35.955Z,6.86
2018-12-11T07:21:04.750Z,6.77
2018-12-11T07:23:33.530Z,6.58
2018-12-11T07:26:02.230Z,6.59
2018-12-11T07:28:31.051Z,6.78
2018-12-11T07:30:59.846Z,6.77
2018-12-11T07:33:28.579Z,6.74
2018-12-11T07:35:57.324Z,6.82
2018-12-11T07:38:26.446Z,6.93
2018-12-11T07:40:55.194Z,7.03
2018-12-11T07:43:23.906Z,7.13
2018-12-11T07:45:52.644Z,6.84
2018-12-11T07:48:21.358Z,6.83
2018-12-11T07:50:50.063Z,6.82
2018-12-11T07:53:18.782Z,6.88
2018-12-11T07:55:47.538Z,6.93
2018-12-11T07:58:16.279Z,6.94
2018-12-11T08:00:45.867Z,6.99
2018-12-11T08:03:14.542Z,7.10
2018-12-11T08:05:43.211Z,6.94
2018-12-11T08:08:16.109Z,7.02
2018-12-11T08:10:44.968Z,7.01
2018-12-11T08:13:13.739Z,6.90
2018-12-11T08:15:42.479Z,7.07
2018-12-11T08:18:11.231Z,7.05
2018-12-11T08:20:39.967Z,7.03
2018-12-11T08:23:08.639Z,7.18
2018-12-11T08:25:37.327Z,7.27
2018-12-11T08:28:06.067Z,7.19
2018-12-11T08:30:34.730Z,6.88
2018-12-11T08:33:03.468Z,6.90
2018-12-11T08:35:32.222Z,6.90
2018-12-11T08:38:00.930Z,6.87
2018-12-11T08:40:29.646Z,6.83
2018-12-11T08:42:58.335Z,6.92
2018-12-11T08:45:27.072Z,7.03
2018-12-11T08:47:56.379Z,7.16
2018-12-11T08:50:25.107Z,7.19
2018-12-11T08:52:53.803Z,7.09
2018-12-11T08:55:22.479Z,7.24
2018-12-11T08:57:51.254Z,7.28
2018-12-11T09:00:19.977Z,7.23
2018-12-11T09:02:48.618Z,7.25
2018-12-11T09:05:17.330Z,7.41
2018-12-11T09:07:46.050Z,7.30
2018-12-11T09:12:57.137Z,7.09
2018-12-11T09:15:25.852Z,7.26
2018-12-11T09:17:54.511Z,7.23
2018-12-11T09:20:23.242Z,7.34
2018-12-11T09:22:51.951Z,7.25
2018-12-11T09:25:20.671Z,7.31
2018-12-11T09:27:49.414Z,7.32
2018-12-11T09:30:18.192Z,7.46
2018-12-11T09:32:46.887Z,7.53
2018-12-11T09:35:16.590Z,7.53
2018-12-11T09:37:45.242Z,7.58
2018-12-11T09:40:14.009Z,7.43
2018-12-11T09:42:44.095Z,7.53
2018-12-11T09:45:12.868Z,7.68
2018-12-11T09:47:41.604Z,7.55
2018-12-11T09:50:10.337Z,7.55
2018-12-11T09:52:39.153Z,7.68
2018-12-11T09:55:07.999Z,7.75
2018-12-11T09:57:36.675Z,7.72
2018-12-11T10:00:07.195Z,7.77
2018-12-11T10:02:36.011Z,7.92
2018-12-11T10:05:05.098Z,7.78
2018-12-11T10:07:33.851Z,7.59
2018-12-11T10:10:02.591Z,7.60
2018-12-11T10:12:31.296Z,7.54
2018-12-11T10:14:59.979Z,7.44
2018-12-11T10:17:28.710Z,7.60
2018-12-11T10:19:57.570Z,7.74
2018-12-11T10:22:26.407Z,7.77
2018-12-11T10:24:55.186Z,7.82
2018-12-11T10:27:23.969Z,7.94
2018-12-11T10:29:52.719Z,7.83
2018-12-11T10:32:21.514Z,7.73
2018-12-11T10:34:50.200Z,7.98
2018-12-11T10:37:18.993Z,7.96
2018-12-11T10:39:47.758Z,7.96
2018-12-11T10:42:16.511Z,8.00
2018-12-11T10:44:45.291Z,8.05
2018-12-11T10:47:14.048Z,7.95
2018-12-11T10:49:42.799Z,7.99
2018-12-11T10:52:11.543Z,8.12
2018-12-11T10:54:40.321Z,8.13
2018-12-11T10:57:09.034Z,8.36
2018-12-11T10:59:37.739Z,8.29
2018-12-11T11:02:11.911Z,8.35
2018-12-11T11:04:40.642Z,8.37
2018-12-11T11:07:09.387Z,8.42
2018-12-11T11:09:38.125Z,8.52
2018-12-11T11:12:06.923Z,8.47
2018-12-11T11:14:35.800Z,8.37
2018-12-11T11:17:04.668Z,8.25
2018-12-11T11:19:33.411Z,8.23
2018-12-11T11:22:02.174Z,8.46
2018-12-11T11:24:30.896Z,8.50
2018-12-11T11:26:59.567Z,8.42
2018-12-11T11:29:28.305Z,8.42
2018-12-11T11:31:57.050Z,8.48
2018-12-11T11:34:25.825Z,8.68
2018-12-11T11:36:54.871Z,8.72
2018-12-11T11:39:23.543Z,8.59
2018-12-11T11:41:52.295Z,8.66
2018-12-11T11:44:20.999Z,8.55
2018-12-11T11:46:49.743Z,8.76
2018-12-11T11:49:19.567Z,8.98
2018-12-11T11:51:48.379Z,8.88
2018-12-11T11:54:17.059Z,8.88
2018-12-11T11:56:45.734Z,9.04
2018-12-11T11:59:14.415Z,9.03
2018-12-11T12:01:43.178Z,8.97
2018-12-11T12:04:11.903Z,8.93
2018-12-11T12:06:40.670Z,9.05
2018-12-11T12:09:09.446Z,8.90
2018-12-11T12:11:39.270Z,8.96
2018-12-11T12:14:08.070Z,9.13
2018-12-11T12:16:36.801Z,9.04
2018-12-11T12:19:05.531Z,9.05
2018-12-11T12:21:34.204Z,9.15
2018-12-11T12:24:02.972Z,9.08
2018-12-11T12:26:31.715Z,9.11
2018-12-11T12:29:00.396Z,9.05
2018-12-11T12:31:29.395Z,9.18
2018-12-11T12:33:58.116Z,8.92
2018-12-11T12:36:26.839Z,8.72
2018-12-11T12:38:55.597Z,8.77
2018-12-11T12:41:24.355Z,8.87
2018-12-11T12:43:54.076Z,9.01
2018-12-11T12:46:23.713Z,9.24
2018-12-11T12:48:53.390Z,9.20
2018-12-11T12:51:23.646Z,9.35
2018-12-11T12:53:53.341Z,9.37
2018-12-11T12:56:23.005Z,9.46
2018-12-11T12:58:52.701Z,9.33
2018-12-11T13:01:22.173Z,9.15
2018-12-11T13:03:52.501Z,8.99
2018-12-11T13:06:22.304Z,9.06
2018-12-11T13:08:56.438Z,9.02
2018-12-11T13:11:26.579Z,8.91
2018-12-11T13:13:56.253Z,8.89
2018-12-11T13:16:26.161Z,8.91
2018-12-11T13:18:55.902Z,8.60
2018-12-11T13:21:26.304Z,8.48
2018-12-11T13:23:55.946Z,8.60
2018-12-11T13:26:25.485Z,8.54
2018-12-11T13:28:55.155Z,8.54
2018-12-11T13:31:25.279Z,8.63
2018-12-11T13:33:55.422Z,8.73
2018-12-11T13:36:31.871Z,8.58
2018-12-11T13:38:57.189Z,8.81
2018-12-11T13:41:26.741Z,8.85
2018-12-11T13:43:56.893Z,8.84
2018-12-11T13:46:26.300Z,8.92
2018-12-11T13:48:55.895Z,8.82
2018-12-11T13:51:25.995Z,8.87
2018-12-11T13:53:55.564Z,8.87
2018-12-11T13:56:25.495Z,8.79
2018-12-11T13:58:54.897Z,8.83
2018-12-11T14:01:24.519Z,8.85
2018-12-11T14:03:54.596Z,8.83
2018-12-11T14:06:24.174Z,8.81
2018-12-11T14:08:53.583Z,8.74
2018-12-11T14:11:23.308Z,8.65
2018-12-11T14:13:52.975Z,8.72
2018-12-11T14:16:22.676Z,8.94
2018-12-11T14:18:52.225Z,9.02
2018-12-11T14:21:21.875Z,8.86
2018-12-11T14:23:51.411Z,9.03
2018-12-11T14:26:21.005Z,8.91
2018-12-11T14:28:50.574Z,8.97
2018-12-11T14:31:20.340Z,9.07
2018-12-11T14:33:50.309Z,8.97
2018-12-11T14:36:19.870Z,8.90
2018-12-11T14:38:51.441Z,8.66
2018-12-11T14:41:21.108Z,8.70
2018-12-11T14:43:50.607Z,8.75
2018-12-11T14:46:21.133Z,8.82
2018-12-11T14:48:50.666Z,8.89
2018-12-11T14:51:20.396Z,8.90
2018-12-11T14:53:49.915Z,8.94
2018-12-11T14:56:19.640Z,9.05
2018-12-11T14:58:49.214Z,8.97
2018-12-11T15:01:18.911Z,9.03
2018-12-11T15:03:49.094Z,9.04
2018-12-11T15:06:18.340Z,9.07
2018-12-11T15:08:47.855Z,9.07
2018-12-11T15:11:17.346Z,9.09
2018-12-11T15:13:46.962Z,9.27
2018-12-11T15:16:15.675Z,9.39
2018-12-11T15:18:44.345Z,9.50
2018-12-11T15:21:13.180Z,9.61
2018-12-11T15:23:42.107Z,9.68
2018-12-11T15:26:10.772Z,9.75
2018-12-11T15:28:39.539Z,9.82
2018-12-11T15:31:10.406Z,9.79
2018-12-11T15:33:39.110Z,9.78
2018-12-11T15:36:07.847Z,9.79
2018-12-11T15:38:36.637Z,9.78
2018-12-11T15:41:05.362Z,9.78
2018-12-11T15:43:34.025Z,9.77
2018-12-11T15:46:02.743Z,9.74
2018-12-11T15:48:31.506Z,9.70
2018-12-11T15:51:00.219Z,9.63
2018-12-11T15:53:28.981Z,9.59
2018-12-11T15:55:57.691Z,9.55
2018-12-11T15:58:26.404Z,9.54
2018-12-11T16:00:55.145Z,9.46
2018-12-11T16:03:23.811Z,9.25
2018-12-11T16:05:52.523Z,8.73
2018-12-11T16:08:21.202Z,8.56
2018-12-11T16:10:49.930Z,8.37
2018-12-11T16:13:18.611Z,8.41
2018-12-11T16:15:48.202Z,8.29
2018-12-11T16:18:16.934Z,8.11
2018-12-11T16:20:45.678Z,8.21
2018-12-11T16:23:14.422Z,8.22
2018-12-11T16:25:43.171Z,8.26
2018-12-11T16:28:11.918Z,8.38
2018-12-11T16:30:40.699Z,8.33
2018-12-11T16:33:09.455Z,8.36
2018-12-11T16:35:38.152Z,8.38
2018-12-11T16:38:06.947Z,8.50
2018-12-11T16:40:35.771Z,8.18
2018-12-11T16:43:04.547Z,8.39
2018-12-11T16:45:33.279Z,8.48
2018-12-11T16:48:02.031Z,8.75
2018-12-11T16:50:30.762Z,8.89
2018-12-11T16:52:59.708Z,8.66
2018-12-11T16:55:28.502Z,9.88
2018-12-11T16:57:57.307Z,10.72
2018-12-11T17:00:26.030Z,10.91
2018-12-11T17:02:54.785Z,10.57
2018-12-11T17:05:23.552Z,10.27
2018-12-11T17:07:52.328Z,10.09
2018-12-11T17:10:21.034Z,10.01
2018-12-11T17:12:49.817Z,9.92
2018-12-11T17:15:23.859Z,9.84
2018-12-11T17:17:52.625Z,9.78
2018-12-11T17:20:21.395Z,9.61
2018-12-11T17:22:50.099Z,9.56
2018-12-11T17:25:18.826Z,9.47
2018-12-11T17:27:47.619Z,9.38
2018-12-11T17:30:16.279Z,9.34
2018-12-11T17:32:44.975Z,9.42
2018-12-11T17:35:13.755Z,9.39
2018-12-11T17:37:42.478Z,9.30
2018-12-11T17:40:11.266Z,9.30
2018-12-11T17:42:39.974Z,9.26
2018-12-11T17:45:08.698Z,9.23
2018-12-11T17:47:37.422Z,9.25
2018-12-11T17:50:07.585Z,9.29
2018-12-11T17:52:36.299Z,9.31
2018-12-11T17:55:05.314Z,9.31
2018-12-11T17:57:34.057Z,9.32
2018-12-11T18:00:04.041Z,9.28
2018-12-11T18:02:36.555Z,9.15
2018-12-11T18:05:06.287Z,9.05
2018-12-11T18:07:34.967Z,8.84
2018-12-11T18:10:05.030Z,8.80
2018-12-11T18:12:33.775Z,8.77
2018-12-11T18:15:02.578Z,8.69
2018-12-11T18:17:31.299Z,8.59
2018-12-11T18:20:00.047Z,8.56
2018-12-11T18:22:28.767Z,8.57
2018-12-11T18:24:57.492Z,8.63
2018-12-11T18:27:26.253Z,8.56
2018-12-11T18:29:55.095Z,8.49
2018-12-11T18:32:25.188Z,8.44
2018-12-11T18:34:54.405Z,8.52
2018-12-11T18:37:23.391Z,8.57
2018-12-11T18:39:52.201Z,8.62
2018-12-11T18:42:20.996Z,8.61
2018-12-11T18:44:49.745Z,8.58
2018-12-11T18:47:18.484Z,8.58
2018-12-11T18:49:47.258Z,8.56
2018-12-11T18:52:15.981Z,8.56
2018-12-11T18:54:45.598Z,8.59
2018-12-11T18:57:14.270Z,8.59
2018-12-11T18:59:43.015Z,8.61
2018-12-11T19:02:11.739Z,8.41
2018-12-11T19:04:40.518Z,8.29
2018-12-11T19:07:09.259Z,8.20
2018-12-11T19:09:39.895Z,8.14
2018-12-11T19:12:08.690Z,8.06
2018-12-11T19:14:37.407Z,8.22
2018-12-11T19:17:08.072Z,8.20
2018-12-11T19:19:37.583Z,8.16
2018-12-11T19:22:06.244Z,8.14
2018-12-11T19:24:45.767Z,8.13
2018-12-11T19:27:14.488Z,8.11
2018-12-11T19:29:43.168Z,8.25
2018-12-11T19:32:13.920Z,8.23
2018-12-11T19:34:42.699Z,8.25
2018-12-11T19:37:11.423Z,8.25
2018-12-11T19:39:40.186Z,8.22
2018-12-11T19:42:09.210Z,8.14
2018-12-11T19:44:38.022Z,8.15
2018-12-11T19:47:06.787Z,8.20
2018-12-11T19:49:36.603Z,8.18
2018-12-11T19:52:05.672Z,7.95
2018-12-11T19:54:34.343Z,8.22
2018-12-11T19:57:03.167Z,8.19
2018-12-11T19:59:33.078Z,8.13
2018-12-11T20:02:01.861Z,8.11
2018-12-11T20:04:30.522Z,8.17
2018-12-11T20:06:59.226Z,8.26
2018-12-11T20:09:28.019Z,8.37
2018-12-11T20:11:56.711Z,8.53
2018-12-11T20:14:25.406Z,8.59
2018-12-11T20:16:54.303Z,8.70
2018-12-11T20:19:23.098Z,8.81
2018-12-11T20:21:51.861Z,8.85
2018-12-11T20:24:20.691Z,8.75
2018-12-11T20:26:49.447Z,8.82
2018-12-11T20:29:18.154Z,8.81
2018-12-11T20:31:46.839Z,8.82
2018-12-11T20:34:15.619Z,8.97
2018-12-11T20:36:44.699Z,8.90
2018-12-11T20:39:13.379Z,8.86
2018-12-11T20:41:42.099Z,8.88
2018-12-11T20:44:10.852Z,8.88
2018-12-11T20:46:39.563Z,8.83
2018-12-11T20:49:08.315Z,8.85
2018-12-11T20:51:37.015Z,8.78
2018-12-11T20:54:05.727Z,8.77
2018-12-11T20:56:34.473Z,8.78
2018-12-11T20:59:03.908Z,8.74
2018-12-11T21:01:32.579Z,8.71
2018-12-11T21:04:01.274Z,8.76
2018-12-11T21:06:29.970Z,8.78
2018-12-11T21:08:58.772Z,8.75
2018-12-11T21:11:27.556Z,8.71
2018-12-11T21:13:56.248Z,8.79
2018-12-11T21:16:25.106Z,8.84
2018-12-11T21:18:53.971Z,8.79
2018-12-11T21:21:23.240Z,8.66
2018-12-11T21:23:51.955Z,8.60
2018-12-11T21:26:20.674Z,8.58
2018-12-11T21:28:49.394Z,8.51
2018-12-11T21:31:18.139Z,8.52
2018-12-11T21:33:46.871Z,8.48
2018-12-11T21:36:15.610Z,8.39
2018-12-11T21:38:44.378Z,8.45
2018-12-11T21:41:13.078Z,8.42
2018-12-11T21:43:42.786Z,8.36
2018-12-11T21:46:11.505Z,8.36
2018-12-11T21:48:40.202Z,8.36
2018-12-11T21:51:08.912Z,8.36
2018-12-11T21:53:37.610Z,8.33
2018-12-11T21:56:06.371Z,8.27
2018-12-11T21:58:35.090Z,8.26
2018-12-11T22:01:05.092Z,8.18
2018-12-11T22:03:33.834Z,8.19
2018-12-11T22:06:02.943Z,8.15
2018-12-11T22:08:31.659Z,8.16
2018-12-11T22:11:00.379Z,8.18
2018-12-11T22:13:29.143Z,8.23
2018-12-11T22:15:57.866Z,8.17
2018-12-11T22:18:26.583Z,8.09
2018-12-11T22:20:55.343Z,8.04
2018-12-11T22:23:24.086Z,8.03
2018-12-11T22:25:52.787Z,7.86
2018-12-11T22:28:21.518Z,7.93
2018-12-11T22:30:50.225Z,7.74
2018-12-11T22:33:18.949Z,7.74
2018-12-11T22:35:47.691Z,7.77
2018-12-11T22:38:16.403Z,7.77
2018-12-11T22:40:45.109Z,7.68
2018-12-11T22:43:13.811Z,7.45
2018-12-11T22:45:42.528Z,7.43
2018-12-11T22:48:11.228Z,7.53
2018-12-11T22:50:39.987Z,7.48
2018-12-11T22:53:08.700Z,7.46
2018-12-11T22:55:37.487Z,7.52
2018-12-11T22:58:06.134Z,7.66
2018-12-11T23:00:34.876Z,7.63
2018-12-11T23:03:05.574Z,7.66
2018-12-11T23:05:34.291Z,7.68
2018-12-11T23:08:02.954Z,7.63
2018-12-11T23:10:31.639Z,7.70
2018-12-11T23:13:00.323Z,7.69
2018-12-11T23:15:29.014Z,7.76
2018-12-11T23:17:57.774Z,7.84
2018-12-11T23:20:26.517Z,7.74
2018-12-11T23:22:55.242Z,7.65
2018-12-11T23:25:23.937Z,7.74
2018-12-11T23:27:52.611Z,7.71
2018-12-11T23:30:21.339Z,7.73
2018-12-11T23:32:49.991Z,7.56
2018-12-11T23:35:18.690Z,7.54
2018-12-11T23:37:47.391Z,7.50
2018-12-11T23:40:16.041Z,7.41
2018-12-11T23:42:44.695Z,7.46
2018-12-11T23:45:13.418Z,7.40
2018-12-11T23:47:42.111Z,7.23
2018-12-11T23:50:10.819Z,7.09
2018-12-11T23:52:39.518Z,7.14
2018-12-11T23:55:08.281Z,7.24
2018-12-11T23:57:36.979Z,7.21
